sensor_id;sensor_type;location;lat;lon;timestamp;P1;durP1;ratioP1;P2;durP2;ratioP2
6529;SDS011;3298;42.688;23.366;2023-03-01T00:00:11;3.17;;;2.67;;
6529;SDS011;3298;42.688;23.366;2023-03-01T00:02:38;2.87;;;2.57;;
6529;SDS011;3298;42.688;23.366;2023-03-01T00:05:06;2.90;;;2.70;;
6529;SDS011;3298;42.688;23.366;2023-03-01T00:07:33;2.80;;;2.60;;
6529;SDS011;3298;42.688;23.366;2023-03-01T00:10:01;3.30;;;2.70;;
6529;SDS011;3298;42.688;23.366;2023-03-01T00:12:28;4.67;;;2.53;;
6529;SDS011;3298;42.688;23.366;2023-03-01T00:14:55;3.13;;;2.83;;
6529;SDS011;3298;42.688;23.366;2023-03-01T00:17:22;1.70;;;1.60;;
6529;SDS011;3298;42.688;23.366;2023-03-01T00:19:48;3.37;;;3.10;;
6529;SDS011;3298;42.688;23.366;2023-03-01T00:22:15;2.37;;;2.17;;
6529;SDS011;3298;42.688;23.366;2023-03-01T00:24:42;2.30;;;2.13;;
6529;SDS011;3298;42.688;23.366;2023-03-01T00:27:10;2.63;;;2.10;;
6529;SDS011;3298;42.688;23.366;2023-03-01T00:29:37;2.40;;;2.20;;
6529;SDS011;3298;42.688;23.366;2023-03-01T00:32:04;2.87;;;2.60;;
6529;SDS011;3298;42.688;23.366;2023-03-01T00:34:31;2.10;;;1.90;;
6529;SDS011;3298;42.688;23.366;2023-03-01T00:36:57;3.10;;;2.60;;
6529;SDS011;3298;42.688;23.366;2023-03-01T00:39:30;2.37;;;2.23;;
6529;SDS011;3298;42.688;23.366;2023-03-01T00:41:58;2.10;;;1.97;;
6529;SDS011;3298;42.688;23.366;2023-03-01T00:44:26;2.90;;;2.43;;
6529;SDS011;3298;42.688;23.366;2023-03-01T00:46:53;1.77;;;1.67;;
6529;SDS011;3298;42.688;23.366;2023-03-01T00:49:20;2.03;;;1.93;;
6529;SDS011;3298;42.688;23.366;2023-03-01T00:51:49;2.43;;;1.77;;
6529;SDS011;3298;42.688;23.366;2023-03-01T00:54:16;2.30;;;2.10;;
6529;SDS011;3298;42.688;23.366;2023-03-01T00:56:42;2.70;;;2.50;;
6529;SDS011;3298;42.688;23.366;2023-03-01T00:59:09;3.03;;;2.23;;
6529;SDS011;3298;42.688;23.366;2023-03-01T01:01:37;1.97;;;1.80;;
6529;SDS011;3298;42.688;23.366;2023-03-01T01:04:05;2.23;;;2.03;;
6529;SDS011;3298;42.688;23.366;2023-03-01T01:06:34;1.77;;;1.67;;
6529;SDS011;3298;42.688;23.366;2023-03-01T01:09:02;1.73;;;1.63;;
6529;SDS011;3298;42.688;23.366;2023-03-01T01:11:30;1.63;;;1.53;;
6529;SDS011;3298;42.688;23.366;2023-03-01T01:13:58;1.63;;;1.53;;
6529;SDS011;3298;42.688;23.366;2023-03-01T01:16:26;1.80;;;1.70;;
6529;SDS011;3298;42.688;23.366;2023-03-01T01:18:54;1.70;;;1.60;;
6529;SDS011;3298;42.688;23.366;2023-03-01T01:21:22;1.60;;;1.50;;
6529;SDS011;3298;42.688;23.366;2023-03-01T01:23:50;1.90;;;1.80;;
6529;SDS011;3298;42.688;23.366;2023-03-01T01:26:18;1.83;;;1.73;;
6529;SDS011;3298;42.688;23.366;2023-03-01T01:28:46;2.30;;;2.20;;
6529;SDS011;3298;42.688;23.366;2023-03-01T01:31:13;1.93;;;1.83;;
6529;SDS011;3298;42.688;23.366;2023-03-01T01:33:41;2.03;;;1.93;;
6529;SDS011;3298;42.688;23.366;2023-03-01T01:36:10;1.30;;;1.20;;
6529;SDS011;3298;42.688;23.366;2023-03-01T01:38:37;1.40;;;1.40;;
6529;SDS011;3298;42.688;23.366;2023-03-01T01:41:04;1.60;;;1.50;;
6529;SDS011;3298;42.688;23.366;2023-03-01T01:43:34;1.07;;;1.07;;
6529;SDS011;3298;42.688;23.366;2023-03-01T01:46:03;0.87;;;0.87;;
6529;SDS011;3298;42.688;23.366;2023-03-01T01:48:34;0.87;;;0.87;;
6529;SDS011;3298;42.688;23.366;2023-03-01T01:51:07;0.97;;;0.97;;
6529;SDS011;3298;42.688;23.366;2023-03-01T01:53:39;0.80;;;0.80;;
6529;SDS011;3298;42.688;23.366;2023-03-01T01:56:06;1.00;;;1.00;;
6529;SDS011;3298;42.688;23.366;2023-03-01T01:58:35;1.07;;;1.07;;
6529;SDS011;3298;42.688;23.366;2023-03-01T02:01:03;1.07;;;1.07;;
6529;SDS011;3298;42.688;23.366;2023-03-01T02:03:31;0.90;;;0.90;;
6529;SDS011;3298;42.688;23.366;2023-03-01T02:06:03;1.47;;;1.37;;
6529;SDS011;3298;42.688;23.366;2023-03-01T02:08:35;1.30;;;1.30;;
6529;SDS011;3298;42.688;23.366;2023-03-01T02:11:05;1.10;;;1.10;;
6529;SDS011;3298;42.688;23.366;2023-03-01T02:13:33;1.00;;;1.00;;
6529;SDS011;3298;42.688;23.366;2023-03-01T02:16:02;1.20;;;1.20;;
6529;SDS011;3298;42.688;23.366;2023-03-01T02:18:29;1.07;;;1.07;;
6529;SDS011;3298;42.688;23.366;2023-03-01T02:21:02;1.50;;;1.50;;
6529;SDS011;3298;42.688;23.366;2023-03-01T02:23:41;0.90;;;0.90;;
6529;SDS011;3298;42.688;23.366;2023-03-01T02:26:11;0.80;;;0.80;;
6529;SDS011;3298;42.688;23.366;2023-03-01T02:28:45;1.63;;;1.53;;
6529;SDS011;3298;42.688;23.366;2023-03-01T02:31:14;1.60;;;1.50;;
6529;SDS011;3298;42.688;23.366;2023-03-01T02:34:01;2.30;;;2.20;;
6529;SDS011;3298;42.688;23.366;2023-03-01T02:36:30;1.97;;;1.87;;
6529;SDS011;3298;42.688;23.366;2023-03-01T02:39:02;1.60;;;1.50;;
6529;SDS011;3298;42.688;23.366;2023-03-01T02:41:31;1.20;;;1.20;;
6529;SDS011;3298;42.688;23.366;2023-03-01T02:44:03;0.87;;;0.87;;
6529;SDS011;3298;42.688;23.366;2023-03-01T02:46:30;1.30;;;1.30;;
6529;SDS011;3298;42.688;23.366;2023-03-01T02:48:57;1.33;;;1.23;;
6529;SDS011;3298;42.688;23.366;2023-03-01T02:51:27;1.63;;;1.53;;
6529;SDS011;3298;42.688;23.366;2023-03-01T02:54:06;1.20;;;1.10;;
6529;SDS011;3298;42.688;23.366;2023-03-01T02:56:37;1.53;;;1.43;;
6529;SDS011;3298;42.688;23.366;2023-03-01T02:59:05;1.30;;;1.27;;
6529;SDS011;3298;42.688;23.366;2023-03-01T03:01:32;1.60;;;1.50;;
6529;SDS011;3298;42.688;23.366;2023-03-01T03:04:03;2.00;;;1.57;;
6529;SDS011;3298;42.688;23.366;2023-03-01T03:06:31;1.37;;;1.37;;
6529;SDS011;3298;42.688;23.366;2023-03-01T03:08:57;2.40;;;1.83;;
6529;SDS011;3298;42.688;23.366;2023-03-01T03:11:24;1.73;;;1.63;;
6529;SDS011;3298;42.688;23.366;2023-03-01T03:13:51;1.63;;;1.53;;
6529;SDS011;3298;42.688;23.366;2023-03-01T03:16:19;1.50;;;1.50;;
6529;SDS011;3298;42.688;23.366;2023-03-01T03:18:47;1.50;;;1.40;;
6529;SDS011;3298;42.688;23.366;2023-03-01T03:21:14;1.80;;;1.70;;
6529;SDS011;3298;42.688;23.366;2023-03-01T03:23:42;1.60;;;1.50;;
6529;SDS011;3298;42.688;23.366;2023-03-01T03:26:09;2.07;;;1.97;;
6529;SDS011;3298;42.688;23.366;2023-03-01T03:28:38;2.30;;;2.20;;
6529;SDS011;3298;42.688;23.366;2023-03-01T03:31:06;2.07;;;1.83;;
6529;SDS011;3298;42.688;23.366;2023-03-01T03:33:34;2.60;;;2.20;;
6529;SDS011;3298;42.688;23.366;2023-03-01T03:36:02;1.73;;;1.63;;
6529;SDS011;3298;42.688;23.366;2023-03-01T03:38:29;1.70;;;1.60;;
6529;SDS011;3298;42.688;23.366;2023-03-01T03:40:59;1.87;;;1.77;;
6529;SDS011;3298;42.688;23.366;2023-03-01T03:43:27;2.00;;;1.90;;
6529;SDS011;3298;42.688;23.366;2023-03-01T03:45:55;2.30;;;2.20;;
6529;SDS011;3298;42.688;23.366;2023-03-01T03:48:23;3.97;;;2.40;;
6529;SDS011;3298;42.688;23.366;2023-03-01T03:50:52;2.63;;;2.53;;
6529;SDS011;3298;42.688;23.366;2023-03-01T03:53:21;2.33;;;2.00;;
6529;SDS011;3298;42.688;23.366;2023-03-01T03:55:49;2.20;;;2.10;;
6529;SDS011;3298;42.688;23.366;2023-03-01T03:58:16;2.10;;;2.00;;
6529;SDS011;3298;42.688;23.366;2023-03-01T04:00:45;2.70;;;2.50;;
6529;SDS011;3298;42.688;23.366;2023-03-01T04:03:13;2.30;;;2.20;;
6529;SDS011;3298;42.688;23.366;2023-03-01T04:05:41;2.20;;;2.10;;
6529;SDS011;3298;42.688;23.366;2023-03-01T04:08:10;2.63;;;2.47;;
6529;SDS011;3298;42.688;23.366;2023-03-01T04:10:38;2.17;;;2.07;;
6529;SDS011;3298;42.688;23.366;2023-03-01T04:13:07;2.07;;;1.97;;
6529;SDS011;3298;42.688;23.366;2023-03-01T04:15:37;1.87;;;1.77;;
6529;SDS011;3298;42.688;23.366;2023-03-01T04:18:04;2.20;;;2.07;;
6529;SDS011;3298;42.688;23.366;2023-03-01T04:20:33;2.10;;;2.00;;
6529;SDS011;3298;42.688;23.366;2023-03-01T04:23:03;2.07;;;1.97;;
6529;SDS011;3298;42.688;23.366;2023-03-01T04:25:40;2.40;;;2.30;;
6529;SDS011;3298;42.688;23.366;2023-03-01T04:28:08;1.80;;;1.70;;
6529;SDS011;3298;42.688;23.366;2023-03-01T04:30:35;2.40;;;2.30;;
6529;SDS011;3298;42.688;23.366;2023-03-01T04:33:03;2.33;;;2.23;;
6529;SDS011;3298;42.688;23.366;2023-03-01T04:35:31;1.87;;;1.77;;
6529;SDS011;3298;42.688;23.366;2023-03-01T04:37:59;1.87;;;1.77;;
6529;SDS011;3298;42.688;23.366;2023-03-01T04:40:26;1.90;;;1.80;;
6529;SDS011;3298;42.688;23.366;2023-03-01T04:42:54;2.23;;;2.13;;
6529;SDS011;3298;42.688;23.366;2023-03-01T04:45:21;2.27;;;2.13;;
6529;SDS011;3298;42.688;23.366;2023-03-01T04:47:48;2.67;;;2.27;;
6529;SDS011;3298;42.688;23.366;2023-03-01T04:50:17;2.40;;;2.30;;
6529;SDS011;3298;42.688;23.366;2023-03-01T04:52:45;2.57;;;2.43;;
6529;SDS011;3298;42.688;23.366;2023-03-01T04:55:13;2.73;;;2.63;;
6529;SDS011;3298;42.688;23.366;2023-03-01T04:57:41;3.10;;;2.90;;
6529;SDS011;3298;42.688;23.366;2023-03-01T05:00:10;3.63;;;3.33;;
6529;SDS011;3298;42.688;23.366;2023-03-01T05:02:49;2.53;;;2.33;;
6529;SDS011;3298;42.688;23.366;2023-03-01T05:05:24;3.33;;;3.03;;
6529;SDS011;3298;42.688;23.366;2023-03-01T05:07:53;3.33;;;2.87;;
6529;SDS011;3298;42.688;23.366;2023-03-01T05:10:20;4.60;;;3.07;;
6529;SDS011;3298;42.688;23.366;2023-03-01T05:12:48;3.73;;;3.10;;
6529;SDS011;3298;42.688;23.366;2023-03-01T05:15:16;5.53;;;3.03;;
6529;SDS011;3298;42.688;23.366;2023-03-01T05:17:42;3.50;;;3.20;;
6529;SDS011;3298;42.688;23.366;2023-03-01T05:20:10;4.17;;;3.93;;
6529;SDS011;3298;42.688;23.366;2023-03-01T05:22:37;3.67;;;3.43;;
6529;SDS011;3298;42.688;23.366;2023-03-01T05:25:04;3.80;;;3.50;;
6529;SDS011;3298;42.688;23.366;2023-03-01T05:27:32;4.40;;;3.70;;
6529;SDS011;3298;42.688;23.366;2023-03-01T05:29:59;4.17;;;3.87;;
6529;SDS011;3298;42.688;23.366;2023-03-01T05:32:39;3.57;;;3.37;;
6529;SDS011;3298;42.688;23.366;2023-03-01T05:35:08;3.17;;;2.97;;
6529;SDS011;3298;42.688;23.366;2023-03-01T05:37:38;3.43;;;3.13;;
6529;SDS011;3298;42.688;23.366;2023-03-01T05:40:07;3.33;;;3.10;;
6529;SDS011;3298;42.688;23.366;2023-03-01T05:42:40;3.50;;;3.30;;
6529;SDS011;3298;42.688;23.366;2023-03-01T05:45:08;4.67;;;3.27;;
6529;SDS011;3298;42.688;23.366;2023-03-01T05:47:37;3.10;;;2.90;;
6529;SDS011;3298;42.688;23.366;2023-03-01T05:50:09;4.13;;;3.33;;
6529;SDS011;3298;42.688;23.366;2023-03-01T05:52:43;3.27;;;3.03;;
6529;SDS011;3298;42.688;23.366;2023-03-01T05:55:10;2.60;;;2.40;;
6529;SDS011;3298;42.688;23.366;2023-03-01T05:57:37;2.93;;;2.73;;
6529;SDS011;3298;42.688;23.366;2023-03-01T06:00:04;2.83;;;2.63;;
6529;SDS011;3298;42.688;23.366;2023-03-01T06:02:32;7.00;;;2.50;;
6529;SDS011;3298;42.688;23.366;2023-03-01T06:05:00;2.40;;;2.30;;
6529;SDS011;3298;42.688;23.366;2023-03-01T06:07:27;2.80;;;2.60;;
6529;SDS011;3298;42.688;23.366;2023-03-01T06:09:54;3.30;;;2.87;;
6529;SDS011;3298;42.688;23.366;2023-03-01T06:12:21;3.10;;;2.90;;
6529;SDS011;3298;42.688;23.366;2023-03-01T06:14:47;4.07;;;2.90;;
6529;SDS011;3298;42.688;23.366;2023-03-01T06:17:14;2.40;;;2.30;;
6529;SDS011;3298;42.688;23.366;2023-03-01T06:19:41;3.13;;;2.47;;
6529;SDS011;3298;42.688;23.366;2023-03-01T06:22:09;2.73;;;2.30;;
6529;SDS011;3298;42.688;23.366;2023-03-01T06:24:36;2.90;;;2.60;;
6529;SDS011;3298;42.688;23.366;2023-03-01T06:27:02;4.80;;;1.80;;
6529;SDS011;3298;42.688;23.366;2023-03-01T06:29:29;2.30;;;2.10;;
6529;SDS011;3298;42.688;23.366;2023-03-01T06:31:56;2.33;;;2.13;;
6529;SDS011;3298;42.688;23.366;2023-03-01T06:34:23;1.93;;;1.83;;
6529;SDS011;3298;42.688;23.366;2023-03-01T06:36:50;3.13;;;2.77;;
6529;SDS011;3298;42.688;23.366;2023-03-01T06:39:18;3.00;;;2.70;;
6529;SDS011;3298;42.688;23.366;2023-03-01T06:41:45;3.67;;;3.37;;
6529;SDS011;3298;42.688;23.366;2023-03-01T06:44:12;7.63;;;4.90;;
6529;SDS011;3298;42.688;23.366;2023-03-01T06:46:38;4.87;;;2.80;;
6529;SDS011;3298;42.688;23.366;2023-03-01T06:49:05;3.00;;;1.40;;
6529;SDS011;3298;42.688;23.366;2023-03-01T06:51:34;4.10;;;1.90;;
6529;SDS011;3298;42.688;23.366;2023-03-01T06:54:01;3.00;;;2.33;;
6529;SDS011;3298;42.688;23.366;2023-03-01T06:56:30;4.13;;;2.40;;
6529;SDS011;3298;42.688;23.366;2023-03-01T06:58:57;2.00;;;1.90;;
6529;SDS011;3298;42.688;23.366;2023-03-01T07:01:24;1.90;;;1.80;;
6529;SDS011;3298;42.688;23.366;2023-03-01T07:03:51;2.23;;;2.07;;
6529;SDS011;3298;42.688;23.366;2023-03-01T07:06:18;2.27;;;2.13;;
6529;SDS011;3298;42.688;23.366;2023-03-01T07:08:44;1.93;;;1.83;;
6529;SDS011;3298;42.688;23.366;2023-03-01T07:11:11;1.93;;;1.83;;
6529;SDS011;3298;42.688;23.366;2023-03-01T07:13:39;3.93;;;3.57;;
6529;SDS011;3298;42.688;23.366;2023-03-01T07:16:06;4.40;;;4.00;;
6529;SDS011;3298;42.688;23.366;2023-03-01T07:18:34;2.20;;;2.00;;
6529;SDS011;3298;42.688;23.366;2023-03-01T07:21:03;3.00;;;2.80;;
6529;SDS011;3298;42.688;23.366;2023-03-01T07:23:30;8.13;;;2.77;;
6529;SDS011;3298;42.688;23.366;2023-03-01T07:25:57;2.20;;;2.10;;
6529;SDS011;3298;42.688;23.366;2023-03-01T07:28:25;2.37;;;2.03;;
6529;SDS011;3298;42.688;23.366;2023-03-01T07:30:53;3.03;;;2.70;;
6529;SDS011;3298;42.688;23.366;2023-03-01T07:33:20;3.33;;;3.13;;
6529;SDS011;3298;42.688;23.366;2023-03-01T07:35:47;3.23;;;2.90;;
6529;SDS011;3298;42.688;23.366;2023-03-01T07:38:14;2.40;;;2.20;;
6529;SDS011;3298;42.688;23.366;2023-03-01T07:40:40;2.90;;;1.90;;
6529;SDS011;3298;42.688;23.366;2023-03-01T07:43:07;2.17;;;2.07;;
6529;SDS011;3298;42.688;23.366;2023-03-01T07:45:34;3.20;;;1.60;;
6529;SDS011;3298;42.688;23.366;2023-03-01T07:48:02;2.77;;;2.57;;
6529;SDS011;3298;42.688;23.366;2023-03-01T07:50:29;4.90;;;2.67;;
6529;SDS011;3298;42.688;23.366;2023-03-01T07:52:56;3.40;;;2.13;;
6529;SDS011;3298;42.688;23.366;2023-03-01T07:55:23;1.87;;;1.43;;
6529;SDS011;3298;42.688;23.366;2023-03-01T07:57:50;2.13;;;1.80;;
6529;SDS011;3298;42.688;23.366;2023-03-01T08:00:17;3.03;;;1.97;;
6529;SDS011;3298;42.688;23.366;2023-03-01T08:02:44;2.40;;;1.73;;
6529;SDS011;3298;42.688;23.366;2023-03-01T08:05:12;2.23;;;2.03;;
6529;SDS011;3298;42.688;23.366;2023-03-01T08:07:39;2.10;;;1.90;;
6529;SDS011;3298;42.688;23.366;2023-03-01T08:10:06;2.27;;;2.17;;
6529;SDS011;3298;42.688;23.366;2023-03-01T08:12:33;4.40;;;2.00;;
6529;SDS011;3298;42.688;23.366;2023-03-01T08:15:00;2.23;;;2.03;;
6529;SDS011;3298;42.688;23.366;2023-03-01T08:17:27;1.40;;;1.30;;
6529;SDS011;3298;42.688;23.366;2023-03-01T08:19:53;2.47;;;1.67;;
6529;SDS011;3298;42.688;23.366;2023-03-01T08:22:22;2.33;;;1.57;;
6529;SDS011;3298;42.688;23.366;2023-03-01T08:24:48;1.90;;;1.80;;
6529;SDS011;3298;42.688;23.366;2023-03-01T08:27:15;2.70;;;2.50;;
6529;SDS011;3298;42.688;23.366;2023-03-01T08:29:42;1.67;;;1.57;;
6529;SDS011;3298;42.688;23.366;2023-03-01T08:32:09;1.10;;;1.00;;
6529;SDS011;3298;42.688;23.366;2023-03-01T08:34:36;1.20;;;1.20;;
6529;SDS011;3298;42.688;23.366;2023-03-01T08:37:03;1.50;;;1.40;;
6529;SDS011;3298;42.688;23.366;2023-03-01T08:39:31;1.70;;;1.60;;
6529;SDS011;3298;42.688;23.366;2023-03-01T08:41:58;3.73;;;2.00;;
6529;SDS011;3298;42.688;23.366;2023-03-01T08:44:25;1.87;;;1.77;;
6529;SDS011;3298;42.688;23.366;2023-03-01T08:46:51;1.20;;;1.20;;
6529;SDS011;3298;42.688;23.366;2023-03-01T08:49:20;2.83;;;1.23;;
6529;SDS011;3298;42.688;23.366;2023-03-01T08:51:47;1.47;;;1.47;;
6529;SDS011;3298;42.688;23.366;2023-03-01T08:54:15;1.40;;;1.30;;
6529;SDS011;3298;42.688;23.366;2023-03-01T08:56:45;1.40;;;1.40;;
6529;SDS011;3298;42.688;23.366;2023-03-01T08:59:12;1.17;;;1.10;;
6529;SDS011;3298;42.688;23.366;2023-03-01T09:01:43;1.07;;;1.07;;
6529;SDS011;3298;42.688;23.366;2023-03-01T09:04:10;1.00;;;1.00;;
6529;SDS011;3298;42.688;23.366;2023-03-01T09:06:38;1.23;;;1.23;;
6529;SDS011;3298;42.688;23.366;2023-03-01T09:09:05;1.30;;;1.30;;
6529;SDS011;3298;42.688;23.366;2023-03-01T09:11:34;0.90;;;0.90;;
6529;SDS011;3298;42.688;23.366;2023-03-01T09:14:05;2.10;;;0.90;;
6529;SDS011;3298;42.688;23.366;2023-03-01T09:16:32;1.20;;;1.20;;
6529;SDS011;3298;42.688;23.366;2023-03-01T09:19:01;1.90;;;1.80;;
6529;SDS011;3298;42.688;23.366;2023-03-01T09:21:29;0.80;;;0.80;;
6529;SDS011;3298;42.688;23.366;2023-03-01T09:23:56;1.80;;;1.70;;
6529;SDS011;3298;42.688;23.366;2023-03-01T09:26:24;3.10;;;1.77;;
6529;SDS011;3298;42.688;23.366;2023-03-01T09:28:51;1.37;;;1.27;;
6529;SDS011;3298;42.688;23.366;2023-03-01T09:31:21;1.47;;;1.37;;
6529;SDS011;3298;42.688;23.366;2023-03-01T09:33:49;1.77;;;1.67;;
6529;SDS011;3298;42.688;23.366;2023-03-01T09:36:18;1.90;;;1.80;;
6529;SDS011;3298;42.688;23.366;2023-03-01T09:38:45;1.30;;;1.30;;
6529;SDS011;3298;42.688;23.366;2023-03-01T09:41:18;3.10;;;1.40;;
6529;SDS011;3298;42.688;23.366;2023-03-01T09:43:57;1.60;;;1.50;;
6529;SDS011;3298;42.688;23.366;2023-03-01T09:46:31;3.30;;;1.47;;
6529;SDS011;3298;42.688;23.366;2023-03-01T09:49:07;0.80;;;0.80;;
6529;SDS011;3298;42.688;23.366;2023-03-01T09:51:41;0.77;;;0.77;;
6529;SDS011;3298;42.688;23.366;2023-03-01T09:54:09;4.03;;;1.90;;
6529;SDS011;3298;42.688;23.366;2023-03-01T09:56:38;1.47;;;1.37;;
6529;SDS011;3298;42.688;23.366;2023-03-01T09:59:11;3.50;;;0.67;;
6529;SDS011;3298;42.688;23.366;2023-03-01T10:01:48;1.13;;;1.00;;
6529;SDS011;3298;42.688;23.366;2023-03-01T10:04:25;0.67;;;0.67;;
6529;SDS011;3298;42.688;23.366;2023-03-01T10:07:04;1.47;;;0.93;;
6529;SDS011;3298;42.688;23.366;2023-03-01T10:09:39;1.97;;;1.00;;
6529;SDS011;3298;42.688;23.366;2023-03-01T10:12:08;1.30;;;1.20;;
6529;SDS011;3298;42.688;23.366;2023-03-01T10:14:39;4.93;;;1.10;;
6529;SDS011;3298;42.688;23.366;2023-03-01T10:17:18;0.60;;;0.60;;
6529;SDS011;3298;42.688;23.366;2023-03-01T10:19:52;1.00;;;1.00;;
6529;SDS011;3298;42.688;23.366;2023-03-01T10:22:19;1.10;;;1.10;;
6529;SDS011;3298;42.688;23.366;2023-03-01T10:24:48;1.07;;;1.07;;
6529;SDS011;3298;42.688;23.366;2023-03-01T10:27:17;1.47;;;1.10;;
6529;SDS011;3298;42.688;23.366;2023-03-01T10:29:49;0.93;;;0.93;;
6529;SDS011;3298;42.688;23.366;2023-03-01T10:32:25;1.40;;;1.40;;
6529;SDS011;3298;42.688;23.366;2023-03-01T10:34:53;1.30;;;1.23;;
6529;SDS011;3298;42.688;23.366;2023-03-01T10:37:20;2.30;;;2.20;;
6529;SDS011;3298;42.688;23.366;2023-03-01T10:40:01;1.33;;;1.23;;
6529;SDS011;3298;42.688;23.366;2023-03-01T10:42:34;0.80;;;0.80;;
6529;SDS011;3298;42.688;23.366;2023-03-01T10:48:06;0.60;;;0.60;;
6529;SDS011;3298;42.688;23.366;2023-03-01T10:50:39;0.77;;;0.77;;
6529;SDS011;3298;42.688;23.366;2023-03-01T10:53:17;0.60;;;0.60;;
6529;SDS011;3298;42.688;23.366;2023-03-01T10:56:01;0.30;;;0.30;;
6529;SDS011;3298;42.688;23.366;2023-03-01T10:58:30;1.20;;;0.60;;
6529;SDS011;3298;42.688;23.366;2023-03-01T11:00:58;1.40;;;1.30;;
6529;SDS011;3298;42.688;23.366;2023-03-01T11:03:29;1.50;;;1.40;;
6529;SDS011;3298;42.688;23.366;2023-03-01T11:05:59;1.00;;;1.00;;
6529;SDS011;3298;42.688;23.366;2023-03-01T11:08:29;0.63;;;0.63;;
6529;SDS011;3298;42.688;23.366;2023-03-01T11:11:14;0.40;;;0.40;;
6529;SDS011;3298;42.688;23.366;2023-03-01T11:13:54;0.80;;;0.80;;
6529;SDS011;3298;42.688;23.366;2023-03-01T11:16:23;4.40;;;1.23;;
6529;SDS011;3298;42.688;23.366;2023-03-01T11:19:13;0.97;;;0.80;;
6529;SDS011;3298;42.688;23.366;2023-03-01T11:21:43;1.50;;;0.80;;
6529;SDS011;3298;42.688;23.366;2023-03-01T11:24:19;0.60;;;0.60;;
6529;SDS011;3298;42.688;23.366;2023-03-01T11:26:50;0.87;;;0.87;;
6529;SDS011;3298;42.688;23.366;2023-03-01T11:29:21;0.80;;;0.80;;
6529;SDS011;3298;42.688;23.366;2023-03-01T11:31:55;0.70;;;0.70;;
6529;SDS011;3298;42.688;23.366;2023-03-01T11:34:31;0.70;;;0.70;;
6529;SDS011;3298;42.688;23.366;2023-03-01T11:37:08;1.10;;;0.77;;
6529;SDS011;3298;42.688;23.366;2023-03-01T11:39:43;0.60;;;0.60;;
6529;SDS011;3298;42.688;23.366;2023-03-01T11:42:17;2.30;;;0.90;;
6529;SDS011;3298;42.688;23.366;2023-03-01T11:44:48;3.07;;;1.23;;
6529;SDS011;3298;42.688;23.366;2023-03-01T11:47:32;0.80;;;0.80;;
6529;SDS011;3298;42.688;23.366;2023-03-01T11:50:18;1.70;;;1.60;;
6529;SDS011;3298;42.688;23.366;2023-03-01T11:52:55;1.60;;;1.50;;
6529;SDS011;3298;42.688;23.366;2023-03-01T11:55:43;2.63;;;2.40;;
6529;SDS011;3298;42.688;23.366;2023-03-01T11:58:25;2.30;;;2.10;;
6529;SDS011;3298;42.688;23.366;2023-03-01T12:04:03;3.73;;;1.53;;
6529;SDS011;3298;42.688;23.366;2023-03-01T12:06:52;1.67;;;1.57;;
6529;SDS011;3298;42.688;23.366;2023-03-01T12:09:30;3.10;;;2.80;;
6529;SDS011;3298;42.688;23.366;2023-03-01T12:12:11;3.07;;;2.40;;
6529;SDS011;3298;42.688;23.366;2023-03-01T12:14:55;5.97;;;3.00;;
6529;SDS011;3298;42.688;23.366;2023-03-01T12:17:55;1.80;;;1.63;;
6529;SDS011;3298;42.688;23.366;2023-03-01T12:20:39;1.43;;;1.33;;
6529;SDS011;3298;42.688;23.366;2023-03-01T12:23:20;2.10;;;2.00;;
6529;SDS011;3298;42.688;23.366;2023-03-01T12:26:20;3.73;;;3.43;;
6529;SDS011;3298;42.688;23.366;2023-03-01T12:29:02;3.43;;;2.83;;
6529;SDS011;3298;42.688;23.366;2023-03-01T12:31:45;3.60;;;3.17;;
6529;SDS011;3298;42.688;23.366;2023-03-01T12:34:26;3.17;;;2.57;;
6529;SDS011;3298;42.688;23.366;2023-03-01T12:37:19;2.07;;;1.73;;
6529;SDS011;3298;42.688;23.366;2023-03-01T12:39:56;2.87;;;1.93;;
6529;SDS011;3298;42.688;23.366;2023-03-01T12:42:44;4.00;;;2.83;;
6529;SDS011;3298;42.688;23.366;2023-03-01T12:48:31;2.03;;;1.93;;
6529;SDS011;3298;42.688;23.366;2023-03-01T12:51:10;2.70;;;2.10;;
6529;SDS011;3298;42.688;23.366;2023-03-01T12:53:41;2.17;;;2.07;;
6529;SDS011;3298;42.688;23.366;2023-03-01T12:56:14;1.50;;;1.40;;
6529;SDS011;3298;42.688;23.366;2023-03-01T12:58:46;1.90;;;1.77;;
6529;SDS011;3298;42.688;23.366;2023-03-01T13:01:25;2.83;;;2.23;;
6529;SDS011;3298;42.688;23.366;2023-03-01T13:06:55;3.87;;;2.80;;
6529;SDS011;3298;42.688;23.366;2023-03-01T13:09:34;3.30;;;2.13;;
6529;SDS011;3298;42.688;23.366;2023-03-01T13:15:13;2.43;;;2.23;;
6529;SDS011;3298;42.688;23.366;2023-03-01T13:17:52;2.23;;;1.60;;
6529;SDS011;3298;42.688;23.366;2023-03-01T13:20:20;2.00;;;1.80;;
6529;SDS011;3298;42.688;23.366;2023-03-01T13:22:59;7.00;;;3.00;;
6529;SDS011;3298;42.688;23.366;2023-03-01T13:25:32;3.20;;;2.17;;
6529;SDS011;3298;42.688;23.366;2023-03-01T13:31:04;2.77;;;2.57;;
6529;SDS011;3298;42.688;23.366;2023-03-01T13:33:44;3.60;;;1.70;;
6529;SDS011;3298;42.688;23.366;2023-03-01T13:36:13;1.57;;;1.47;;
6529;SDS011;3298;42.688;23.366;2023-03-01T13:39:28;2.40;;;1.83;;
6529;SDS011;3298;42.688;23.366;2023-03-01T13:41:58;1.80;;;1.67;;
6529;SDS011;3298;42.688;23.366;2023-03-01T13:44:26;3.23;;;2.73;;
6529;SDS011;3298;42.688;23.366;2023-03-01T13:47:00;2.77;;;2.57;;
6529;SDS011;3298;42.688;23.366;2023-03-01T13:49:36;2.93;;;2.43;;
6529;SDS011;3298;42.688;23.366;2023-03-01T13:52:20;2.77;;;2.10;;
6529;SDS011;3298;42.688;23.366;2023-03-01T13:55:06;2.10;;;1.90;;
6529;SDS011;3298;42.688;23.366;2023-03-01T13:57:44;4.00;;;2.77;;
6529;SDS011;3298;42.688;23.366;2023-03-01T14:00:25;2.27;;;2.07;;
6529;SDS011;3298;42.688;23.366;2023-03-01T14:03:05;2.23;;;2.03;;
6529;SDS011;3298;42.688;23.366;2023-03-01T14:05:37;1.77;;;1.67;;
6529;SDS011;3298;42.688;23.366;2023-03-01T14:08:05;2.23;;;2.03;;
6529;SDS011;3298;42.688;23.366;2023-03-01T14:10:50;2.70;;;2.57;;
6529;SDS011;3298;42.688;23.366;2023-03-01T14:13:25;1.47;;;1.37;;
6529;SDS011;3298;42.688;23.366;2023-03-01T14:16:05;2.17;;;2.07;;
6529;SDS011;3298;42.688;23.366;2023-03-01T14:18:46;7.80;;;2.43;;
6529;SDS011;3298;42.688;23.366;2023-03-01T14:21:22;2.13;;;1.97;;
6529;SDS011;3298;42.688;23.366;2023-03-01T14:23:50;3.23;;;2.10;;
6529;SDS011;3298;42.688;23.366;2023-03-01T14:26:19;2.53;;;1.67;;
6529;SDS011;3298;42.688;23.366;2023-03-01T14:28:48;1.63;;;1.53;;
6529;SDS011;3298;42.688;23.366;2023-03-01T14:31:30;1.73;;;1.50;;
6529;SDS011;3298;42.688;23.366;2023-03-01T14:34:01;2.17;;;2.07;;
6529;SDS011;3298;42.688;23.366;2023-03-01T14:36:29;1.33;;;1.23;;
6529;SDS011;3298;42.688;23.366;2023-03-01T14:38:57;4.57;;;1.90;;
6529;SDS011;3298;42.688;23.366;2023-03-01T14:41:30;3.17;;;2.93;;
6529;SDS011;3298;42.688;23.366;2023-03-01T14:44:00;1.57;;;1.47;;
6529;SDS011;3298;42.688;23.366;2023-03-01T14:46:29;1.83;;;1.73;;
6529;SDS011;3298;42.688;23.366;2023-03-01T14:49:03;3.63;;;2.40;;
6529;SDS011;3298;42.688;23.366;2023-03-01T14:51:35;1.33;;;1.27;;
6529;SDS011;3298;42.688;23.366;2023-03-01T14:54:03;5.13;;;1.97;;
6529;SDS011;3298;42.688;23.366;2023-03-01T14:56:43;7.27;;;2.20;;
6529;SDS011;3298;42.688;23.366;2023-03-01T14:59:11;2.93;;;2.73;;
6529;SDS011;3298;42.688;23.366;2023-03-01T15:01:39;3.60;;;3.07;;
6529;SDS011;3298;42.688;23.366;2023-03-01T15:04:10;4.13;;;3.37;;
6529;SDS011;3298;42.688;23.366;2023-03-01T15:06:39;4.37;;;2.97;;
6529;SDS011;3298;42.688;23.366;2023-03-01T15:09:10;5.10;;;4.20;;
6529;SDS011;3298;42.688;23.366;2023-03-01T15:11:40;2.63;;;2.43;;
6529;SDS011;3298;42.688;23.366;2023-03-01T15:17:15;2.20;;;2.10;;
6529;SDS011;3298;42.688;23.366;2023-03-01T15:19:50;3.30;;;2.93;;
6529;SDS011;3298;42.688;23.366;2023-03-01T15:22:17;9.53;;;2.50;;
6529;SDS011;3298;42.688;23.366;2023-03-01T15:24:46;7.40;;;3.63;;
6529;SDS011;3298;42.688;23.366;2023-03-01T15:27:14;5.70;;;2.77;;
6529;SDS011;3298;42.688;23.366;2023-03-01T15:29:48;5.00;;;2.70;;
6529;SDS011;3298;42.688;23.366;2023-03-01T15:32:24;5.17;;;2.20;;
6529;SDS011;3298;42.688;23.366;2023-03-01T15:34:58;2.50;;;2.30;;
6529;SDS011;3298;42.688;23.366;2023-03-01T15:37:44;5.77;;;2.00;;
6529;SDS011;3298;42.688;23.366;2023-03-01T15:40:20;8.33;;;4.97;;
6529;SDS011;3298;42.688;23.366;2023-03-01T15:42:56;10.97;;;5.50;;